Upper Providence, Pennsylvania
Current Conditions -  °F | °C
As of 6:54 AM on Monday 24 Nov 2014 (Local Time) from KPHL Reporting Station
Broken Clouds Broken Clouds  
Wind Chill: 63°   Ceiling: 1100
Heat Index: 63°   Visibility: 10mi
Dew Point: 60°   Wind: 14mph
Humidity: 90%   Direction: 190°S
Pressure: 29.69"   Gusts: NA
Location:  39.9207°N, 75.4181°W
Report Text: KPHL 241154Z 19012KT 10SM BKN011 BKN020 BKN037 17/16 A2969 RMK AO2 SLP052 P0001 60037 70037 T01720156 10183 20133 58005 $
Loading
Personal Weather Stations






























Interactive Weather Map New forecast layout! Learn more

10-Day Weather Forecast

Advertisements
Track Severe Weather on mobile